Time;durP1;ratioP1;P1;durP2;ratioP2;P2;SDS_P1;SDS_P2;PMS_P1;PMS_P2;Temp;Humidity;BMP_temperature;BMP_pressure;BME280_temperature;BME280_humidity;BME280_pressure;Samples;Min_cycle;Max_cycle;Signal;HPM_P1;HPM_P2
2023/12/21 00:02:23;;;;;;;4.60;1.45;;;;;;;7.04;100.00;99779.09;4919883;29;20717;-72
2023/12/21 00:04:50;;;;;;;4.47;1.40;;;;;;;7.05;100.00;99775.41;4913743;29;20132;-73
2023/12/21 00:07:16;;;;;;;5.70;1.42;;;;;;;7.08;100.00;99769.50;4899596;29;20147;-73
2023/12/21 00:09:42;;;;;;;6.80;1.60;;;;;;;7.10;100.00;99773.50;4918173;29;20051;-74
2023/12/21 00:12:08;;;;;;;4.10;1.23;;;;;;;7.13;100.00;99772.16;4889593;29;20379;-72
2023/12/21 00:14:34;;;;;;;6.97;1.40;;;;;;;7.13;100.00;99774.84;4908858;29;20674;-73
2023/12/21 00:16:59;;;;;;;5.97;1.38;;;;;;;7.16;100.00;99786.81;4911886;29;20063;-73
2023/12/21 00:19:25;;;;;;;7.47;1.90;;;;;;;7.20;100.00;99771.88;4919683;29;20494;-74
2023/12/21 00:21:51;;;;;;;11.60;2.13;;;;;;;7.20;100.00;99775.34;4905980;29;20047;-73
2023/12/21 00:24:18;;;;;;;5.38;2.03;;;;;;;7.22;100.00;99775.88;4906307;29;20092;-73
2023/12/21 00:26:44;;;;;;;7.43;1.63;;;;;;;7.27;100.00;99759.88;4922087;29;20047;-73
2023/12/21 00:29:10;;;;;;;8.07;1.67;;;;;;;7.28;100.00;99753.47;4907744;29;20042;-77
2023/12/21 00:31:36;;;;;;;17.38;1.75;;;;;;;7.26;100.00;99755.63;4904371;29;20040;-72
2023/12/21 00:34:01;;;;;;;10.25;1.45;;;;;;;7.27;100.00;99749.22;4891705;29;20552;-72
2023/12/21 00:36:27;;;;;;;12.82;2.05;;;;;;;7.28;100.00;99753.47;4910839;29;20094;-72
2023/12/21 00:38:53;;;;;;;16.33;1.67;;;;;;;7.26;100.00;99755.63;4907054;29;20048;-73
2023/12/21 00:41:18;;;;;;;16.10;1.98;;;;;;;7.28;100.00;99753.47;4921964;29;20425;-74
2023/12/21 00:43:44;;;;;;;13.27;2.65;;;;;;;7.27;100.00;99751.91;4922349;29;20119;-73
2023/12/21 00:46:10;;;;;;;14.40;1.95;;;;;;;7.27;100.00;99751.09;4905844;29;20039;-74
2023/12/21 00:48:37;;;;;;;12.13;1.58;;;;;;;7.30;100.00;99754.00;4909997;29;20114;-73
2023/12/21 00:51:02;;;;;;;17.83;1.77;;;;;;;7.27;100.00;99741.25;4906172;29;20036;-75
2023/12/21 00:53:28;;;;;;;16.25;1.85;;;;;;;7.28;100.00;99742.84;4903100;29;20063;-73
2023/12/21 00:55:54;;;;;;;10.38;1.58;;;;;;;7.29;100.00;99743.63;4927318;29;20098;-73
2023/12/21 00:58:19;;;;;;;13.10;1.65;;;;;;;7.29;100.00;99738.31;4893276;29;20044;-73
2023/12/21 01:00:45;;;;;;;10.65;1.75;;;;;;;7.33;100.00;99750.81;4920202;29;20044;-73
2023/12/21 01:03:11;;;;;;;20.38;2.08;;;;;;;7.32;100.00;99748.41;4920528;29;20144;-74
2023/12/21 01:05:36;;;;;;;8.35;1.63;;;;;;;7.34;100.00;99747.06;4918271;29;20043;-74
2023/12/21 01:08:02;;;;;;;13.90;1.75;;;;;;;7.33;100.00;99740.16;4924158;29;20036;-74
2023/12/21 01:10:30;;;;;;;;;;;;;;;7.34;100.00;99747.06;4920470;29;20536;-73
2023/12/21 01:12:55;;;;;;;14.80;1.55;;;;;;;7.34;100.00;99735.63;4908638;29;19918;-74
2023/12/21 01:15:21;;;;;;;11.85;1.40;;;;;;;7.33;100.00;99732.16;4893596;29;20040;-73
2023/12/21 01:17:50;;;;;;;6.63;1.08;;;;;;;7.34;100.00;99725.75;4918799;29;20525;-73
2023/12/21 01:20:16;;;;;;;7.93;1.40;;;;;;;7.32;100.00;99714.59;4907128;29;20043;-74
2023/12/21 01:22:42;;;;;;;11.32;1.55;;;;;;;7.32;100.00;99717.25;4894030;29;20048;-75
2023/12/21 01:25:08;;;;;;;9.70;1.15;;;;;;;7.33;100.00;99707.41;4927297;29;20119;-75
2023/12/21 01:27:33;;;;;;;9.20;1.63;;;;;;;7.32;100.00;99706.59;4910127;29;20032;-74
2023/12/21 01:29:59;;;;;;;8.27;1.40;;;;;;;7.35;100.00;99707.91;4920344;29;20509;-74
2023/12/21 01:32:25;;;;;;;11.23;1.30;;;;;;;7.34;100.00;99699.13;4923467;29;20039;-75
2023/12/21 01:34:50;;;;;;;11.30;1.30;;;;;;;7.35;100.00;99695.38;4893443;29;20074;-75
2023/12/21 01:37:16;;;;;;;10.30;1.63;;;;;;;7.36;100.00;99690.84;4890859;29;20066;-74
2023/12/21 01:39:42;;;;;;;6.40;1.60;;;;;;;7.37;100.00;99693.25;4887026;29;20073;-74
2023/12/21 01:42:08;;;;;;;10.05;1.60;;;;;;;7.38;100.00;99697.53;4908196;29;20098;-73
2023/12/21 01:44:34;;;;;;;12.55;1.98;;;;;;;7.37;100.00;99687.13;4885971;29;20059;-73
2023/12/21 01:47:00;;;;;;;8.02;1.27;;;;;;;7.39;100.00;99685.78;4920841;29;20036;-73
2023/12/21 01:49:26;;;;;;;9.00;1.70;;;;;;;7.40;100.00;99675.94;4915480;29;20047;-74
2023/12/21 01:51:52;;;;;;;8.00;1.63;;;;;;;7.40;100.00;99673.28;4906538;29;20572;-72
2023/12/21 01:54:18;;;;;;;4.25;1.20;;;;;;;7.41;100.00;99648.22;4915351;29;20744;-72
2023/12/21 01:56:47;;;;;;;5.85;1.33;;;;;;;7.42;100.00;99657.00;4921770;29;20131;-73
2023/12/21 01:59:13;;;;;;;6.28;1.13;;;;;;;7.42;100.00;99647.16;4889818;29;20048;-73
2023/12/21 02:01:39;;;;;;;;;;;;;;;7.43;100.00;99658.59;4900092;29;20043;-73
2023/12/21 02:04:05;;;;;;;8.10;1.38;;;;;;;7.43;100.00;99662.06;4907810;29;19915;-73
2023/12/21 02:06:31;;;;;;;3.08;0.93;;;;;;;7.42;100.00;99651.69;4920194;29;20040;-73
2023/12/21 02:08:57;;;;;;;3.75;0.75;;;;;;;7.44;100.00;99650.31;4887987;29;20047;-73
2023/12/21 02:11:23;;;;;;;6.00;0.90;;;;;;;7.46;100.00;99647.41;4911983;29;20036;-74
2023/12/21 02:13:49;;;;;;;5.22;1.35;;;;;;;7.46;100.00;99636.75;4922631;29;20050;-74
2023/12/21 02:16:34;;;;;;;1.70;0.85;;;;;;;7.47;100.00;99638.34;4907056;29;20031;-73
2023/12/21 02:18:59;;;;;;;5.40;0.95;;;;;;;7.46;100.00;99628.75;4906921;29;20036;-74
2023/12/21 02:21:28;;;;;;;3.05;1.10;;;;;;;7.46;100.00;99612.78;4894026;29;20050;-73
2023/12/21 02:23:55;;;;;;;7.07;1.30;;;;;;;7.45;100.00;99603.16;4921982;29;21000;-74
2023/12/21 02:26:21;;;;;;;2.53;0.77;;;;;;;7.41;100.00;99608.28;4918610;29;20035;-74
2023/12/21 02:28:47;;;;;;;6.22;1.20;;;;;;;7.41;100.00;99605.59;4903774;29;20409;-74
2023/12/21 02:31:13;;;;;;;4.13;1.20;;;;;;;7.44;100.00;99601.59;4922565;29;20059;-74
2023/12/21 02:33:39;;;;;;;5.40;1.90;;;;;;;7.45;100.00;99595.19;4918368;29;20054;-77
2023/12/21 02:36:07;;;;;;;5.90;1.10;;;;;;;7.46;100.00;99596.78;4906280;29;20077;-77
2023/12/21 02:38:33;;;;;;;8.65;1.65;;;;;;;7.45;100.00;99588.00;4908565;29;20051;-78
2023/12/21 02:41:00;;;;;;;7.63;1.40;;;;;;;7.45;100.00;99581.84;4895904;29;20151;-77
2023/12/21 02:43:25;;;;;;;9.98;2.10;;;;;;;7.45;100.00;99576.53;4919381;29;20126;-78
2023/12/21 02:45:53;;;;;;;8.02;1.70;;;;;;;7.45;100.00;99568.53;4922794;29;20070;-78
2023/12/21 02:48:18;;;;;;;12.65;1.75;;;;;;;7.47;100.00;99571.75;4906927;29;20793;-79
2023/12/21 02:50:45;;;;;;;12.00;2.05;;;;;;;7.46;100.00;99583.47;4926563;29;20071;-77
2023/12/21 02:53:11;;;;;;;;;;;;;;;7.48;100.00;99584.78;4895655;29;20032;-78
2023/12/21 02:55:36;;;;;;;11.77;1.52;;;;;;;7.46;100.00;99573.63;4922539;29;19930;-79
2023/12/21 02:58:03;;;;;;;11.57;1.60;;;;;;;7.49;100.00;99566.91;4904821;29;20039;-78
2023/12/21 03:00:28;;;;;;;15.07;2.10;;;;;;;7.48;100.00;99565.34;4888560;29;20056;-77
2023/12/21 03:02:54;;;;;;;10.77;2.17;;;;;;;7.51;100.00;99570.09;4909770;29;20071;-78
2023/12/21 03:05:22;;;;;;;17.00;2.50;;;;;;;7.49;100.00;99567.72;4921758;29;20067;-79
2023/12/21 03:07:48;;;;;;;9.23;1.70;;;;;;;7.54;100.00;99564.22;4909262;29;20039;-76
2023/12/21 03:10:13;;;;;;;9.13;1.70;;;;;;;7.52;100.00;99555.69;4894994;29;20043;-79
2023/12/21 03:12:39;;;;;;;12.27;2.15;;;;;;;7.55;100.00;99552.50;4895678;29;20035;-80
2023/12/21 03:15:06;;;;;;;15.57;1.75;;;;;;;7.56;100.00;99551.41;4905679;29;20071;-78
2023/12/21 03:17:31;;;;;;;11.15;1.85;;;;;;;7.58;100.00;99546.59;4894270;29;20131;-79
2023/12/21 03:19:57;;;;;;;14.52;1.98;;;;;;;7.57;100.00;99537.03;4908426;29;20035;-79
2023/12/21 03:22:26;;;;;;;10.18;2.42;;;;;;;7.59;100.00;99526.91;4893272;29;20956;-78
2023/12/21 03:24:53;;;;;;;10.48;2.20;;;;;;;7.61;100.00;99514.09;4918584;29;20044;-80
2023/12/21 03:27:19;;;;;;;17.15;2.55;;;;;;;7.63;100.00;99509.25;4914203;29;20461;-79
2023/12/21 03:29:48;;;;;;;13.48;2.08;;;;;;;7.64;100.00;99514.31;4907862;29;20127;-79
2023/12/21 03:32:16;;;;;;;14.57;2.40;;;;;;;7.65;100.00;99502.59;4909741;29;20032;-79
2023/12/21 03:34:45;;;;;;;14.43;2.75;;;;;;;7.65;100.00;99496.44;4887260;29;20047;-78
2023/12/21 03:37:10;;;;;;;9.88;2.13;;;;;;;7.64;100.00;99500.19;4904260;29;20040;-77
2023/12/21 03:39:37;;;;;;;16.45;2.33;;;;;;;7.60;100.00;99475.19;4891908;29;20051;-79
2023/12/21 03:42:04;;;;;;;14.98;2.38;;;;;;;7.60;100.00;99483.19;4904910;29;20042;-78
2023/12/21 03:44:30;;;;;;;13.32;2.22;;;;;;;7.59;100.00;99474.41;4908666;29;20414;-76
2023/12/21 03:46:56;;;;;;;8.68;1.70;;;;;;;7.57;100.00;99467.75;4905607;29;20074;-77
2023/12/21 03:49:25;;;;;;;10.75;1.85;;;;;;;7.55;100.00;99469.91;4924269;29;20647;-78
2023/12/21 03:51:52;;;;;;;9.57;1.33;;;;;;;7.59;100.00;99478.94;4925695;29;20590;-77
2023/12/21 03:54:17;;;;;;;12.32;1.63;;;;;;;7.60;100.00;99467.19;4889752;29;20042;-77
2023/12/21 03:56:44;;;;;;;8.63;1.30;;;;;;;7.59;100.00;99468.28;4906190;29;20040;-79
2023/12/21 03:59:11;;;;;;;6.90;1.65;;;;;;;7.60;100.00;99462.66;4908453;29;20047;-78
2023/12/21 04:01:37;;;;;;;10.23;1.98;;;;;;;7.61;100.00;99458.91;4911442;29;20043;-76
2023/12/21 04:04:02;;;;;;;10.27;1.60;;;;;;;7.63;100.00;99455.97;4918136;29;20031;-76
2023/12/21 04:06:28;;;;;;;7.93;1.70;;;;;;;7.63;100.00;99450.63;4896022;29;20036;-79
2023/12/21 04:08:54;;;;;;;7.82;1.63;;;;;;;7.64;100.00;99438.91;4893504;29;20494;-73
2023/12/21 04:11:20;;;;;;;9.32;1.70;;;;;;;7.63;100.00;99430.13;4919788;29;20031;-73
2023/12/21 04:13:47;;;;;;;;;;;;;;;7.64;100.00;99420.25;4903929;29;20127;-74
2023/12/21 04:16:13;;;;;;;10.05;2.25;;;;;;;7.63;100.00;99418.66;4919970;29;19922;-73
2023/12/21 04:18:38;;;;;;;10.25;1.80;;;;;;;7.61;100.00;99416.28;4913925;29;20087;-74
2023/12/21 04:21:07;;;;;;;8.20;1.70;;;;;;;7.60;100.00;99408.59;4925721;29;20095;-73
2023/12/21 04:23:34;;;;;;;11.98;2.05;;;;;;;7.58;100.00;99400.84;4904313;29;20043;-73
2023/12/21 04:25:59;;;;;;;;;;;;;;;7.60;100.00;99398.72;4922534;29;20036;-73
2023/12/21 04:28:25;;;;;;;10.10;1.75;;;;;;;7.60;100.00;99403.25;4904315;29;19918;-73
2023/12/21 04:30:51;;;;;;;6.32;2.17;;;;;;;7.59;100.00;99396.34;4903911;29;20122;-72
2023/12/21 04:33:17;;;;;;;8.05;1.60;;;;;;;7.60;100.00;99387.28;4907613;29;20071;-73
2023/12/21 04:35:43;;;;;;;;;;;;;;;7.61;100.00;99378.19;4925388;29;20510;-76
2023/12/21 04:38:09;;;;;;;8.52;1.58;;;;;;;7.60;100.00;99372.06;4916108;29;19919;-73
2023/12/21 04:40:34;;;;;;;3.60;1.20;;;;;;;7.62;100.00;99364.59;4902442;29;20095;-75
2023/12/21 04:43:00;;;;;;;4.40;1.33;;;;;;;7.64;100.00;99358.97;4924331;29;20047;-74
2023/12/21 04:45:25;;;;;;;7.40;1.27;;;;;;;7.63;100.00;99349.38;4886443;29;20044;-75
2023/12/21 04:47:51;;;;;;;2.83;1.20;;;;;;;7.63;100.00;99338.72;4905804;29;20042;-74
2023/12/21 04:50:18;;;;;;;5.28;1.25;;;;;;;7.60;100.00;99334.78;4928887;29;20036;-74
2023/12/21 04:52:44;;;;;;;3.33;1.00;;;;;;;7.60;100.00;99315.34;4921823;29;20135;-73
2023/12/21 04:55:11;;;;;;;3.45;1.10;;;;;;;7.60;100.00;99312.66;4907250;29;20040;-77
2023/12/21 04:57:37;;;;;;;6.10;1.33;;;;;;;7.63;100.00;99312.09;4906017;29;20115;-73
2023/12/21 05:00:07;;;;;;;4.22;1.10;;;;;;;7.62;100.00;99292.66;4925085;29;20040;-73
2023/12/21 05:02:32;;;;;;;5.35;1.02;;;;;;;7.64;100.00;99285.16;4931322;29;20040;-74
2023/12/21 05:04:58;;;;;;;2.97;1.20;;;;;;;7.66;100.00;99279.56;4929739;29;20099;-74
2023/12/21 05:07:25;;;;;;;2.55;1.00;;;;;;;7.68;100.00;99272.06;4881644;29;20031;-74
2023/12/21 05:09:50;;;;;;;3.10;1.38;;;;;;;7.64;100.00;99260.38;4927854;29;20040;-74
2023/12/21 05:12:16;;;;;;;3.17;1.20;;;;;;;7.65;100.00;99235.31;4928153;29;20034;-73
2023/12/21 05:14:43;;;;;;;3.22;0.98;;;;;;;7.63;100.00;99222.28;4920827;29;20126;-73
2023/12/21 05:17:08;;;;;;;2.38;0.70;;;;;;;7.60;100.00;99214.09;4909172;29;20400;-74
2023/12/21 05:19:34;;;;;;;4.38;0.90;;;;;;;7.61;100.00;99205.00;4903097;29;20540;-74
2023/12/21 05:22:00;;;;;;;1.10;0.82;;;;;;;7.61;100.00;99197.03;4912318;29;20098;-74
2023/12/21 05:24:25;;;;;;;1.15;0.60;;;;;;;7.65;100.00;99195.34;4910157;29;20102;-74
2023/12/21 05:26:51;;;;;;;4.57;1.02;;;;;;;7.61;100.00;99189.03;4912807;29;20036;-74
2023/12/21 05:29:17;;;;;;;2.17;1.02;;;;;;;7.67;100.00;99187.88;4904696;29;20029;-74
2023/12/21 05:31:43;;;;;;;2.47;0.75;;;;;;;7.69;100.00;99179.59;4897045;29;20035;-73
2023/12/21 05:34:09;;;;;;;1.52;0.70;;;;;;;7.70;100.00;99173.97;4908481;29;20032;-74
2023/12/21 05:36:35;;;;;;;3.45;1.17;;;;;;;7.67;100.00;99150.59;4908601;29;20036;-75
2023/12/21 05:39:01;;;;;;;2.03;0.98;;;;;;;7.66;100.00;99157.78;4907668;29;20043;-74
2023/12/21 05:41:27;;;;;;;2.92;1.00;;;;;;;7.70;100.00;99144.66;4904427;29;20055;-74
2023/12/21 05:43:52;;;;;;;2.47;1.13;;;;;;;7.72;100.00;99141.69;4924371;29;20043;-73
2023/12/21 05:46:18;;;;;;;1.77;0.73;;;;;;;7.72;100.00;99123.03;4895745;29;20036;-74
2023/12/21 05:48:44;;;;;;;3.75;1.20;;;;;;;7.74;100.00;99127.03;4920773;29;20469;-75
2023/12/21 05:51:10;;;;;;;1.98;0.95;;;;;;;7.73;100.00;99119.31;4910072;29;20031;-74
2023/12/21 05:53:35;;;;;;;1.45;1.10;;;;;;;7.73;100.00;99109.47;4909926;29;20064;-75
2023/12/21 05:56:02;;;;;;;1.40;1.10;;;;;;;7.75;100.00;99095.84;4892241;29;20040;-75
2023/12/21 05:58:28;;;;;;;2.42;1.10;;;;;;;7.76;100.00;99089.41;4907388;29;20035;-75
2023/12/21 06:00:54;;;;;;;3.42;1.40;;;;;;;7.78;100.00;99085.38;4921932;29;20513;-75
2023/12/21 06:03:23;;;;;;;2.72;1.40;;;;;;;7.77;100.00;99067.81;4910340;29;20093;-73
2023/12/21 06:05:50;;;;;;;2.25;1.30;;;;;;;7.76;100.00;99065.44;4893067;29;20082;-74
2023/12/21 06:08:15;;;;;;;2.08;1.60;;;;;;;7.79;100.00;99055.00;4923069;29;20088;-74
2023/12/21 06:10:41;;;;;;;2.60;1.55;;;;;;;7.75;100.00;99038.00;4891134;29;20094;-74
2023/12/21 06:13:07;;;;;;;2.88;1.92;;;;;;;7.75;100.00;99024.69;4924282;29;20187;-73
2023/12/21 06:15:33;;;;;;;2.05;1.60;;;;;;;7.74;100.00;99017.78;4904365;29;20562;-72
2023/12/21 06:18:00;;;;;;;4.40;1.90;;;;;;;7.70;100.00;99003.44;4925399;29;20817;-75
2023/12/21 06:20:29;;;;;;;1.92;1.30;;;;;;;7.71;100.00;98988.25;4923001;29;20052;-73
2023/12/21 06:22:55;;;;;;;2.55;1.70;;;;;;;7.69;100.00;98980.53;4901389;29;20040;-77
2023/12/21 06:25:20;;;;;;;2.38;1.63;;;;;;;7.68;100.00;98973.63;4905365;29;20098;-74
2023/12/21 06:27:47;;;;;;;1.98;1.38;;;;;;;7.66;100.00;98955.28;4904022;29;20119;-73
2023/12/21 06:30:12;;;;;;;;;;;;;;;7.65;100.00;98944.91;4922328;29;20447;-74
2023/12/21 06:32:39;;;;;;;2.00;1.15;;;;;;;7.63;100.00;98939.09;4924956;29;19919;-74
2023/12/21 06:35:05;;;;;;;1.80;1.25;;;;;;;7.63;100.00;98934.53;4921029;29;20043;-77
2023/12/21 06:37:31;;;;;;;3.22;1.00;;;;;;;7.64;100.00;98925.47;4887799;29;20110;-75
2023/12/21 06:39:58;;;;;;;1.75;1.10;;;;;;;7.67;100.00;98921.44;4923490;29;20042;-74
2023/12/21 06:42:23;;;;;;;2.30;1.00;;;;;;;7.64;100.00;98901.47;4907833;29;20118;-73
2023/12/21 06:44:49;;;;;;;1.10;0.70;;;;;;;7.66;100.00;98898.56;4908684;29;20126;-74
2023/12/21 06:47:15;;;;;;;1.02;0.73;;;;;;;7.67;100.00;98894.78;4925539;29;20123;-73
2023/12/21 06:49:41;;;;;;;2.85;0.70;;;;;;;7.67;100.00;98889.47;4895345;29;20560;-74
2023/12/21 06:52:06;;;;;;;1.60;1.00;;;;;;;7.66;100.00;98877.25;4906820;29;20546;-74
2023/12/21 06:54:34;;;;;;;1.35;0.60;;;;;;;7.69;100.00;98857.97;4894520;29;20612;-75
2023/12/21 06:56:59;;;;;;;2.17;1.08;;;;;;;7.73;100.00;98858.19;4910483;29;20505;-74
2023/12/21 06:59:28;;;;;;;1.30;0.75;;;;;;;7.71;100.00;98858.47;4903755;29;20044;-74
2023/12/21 07:01:54;;;;;;;1.83;0.80;;;;;;;7.72;100.00;98854.72;4908752;29;20514;-74
2023/12/21 07:04:19;;;;;;;1.48;1.00;;;;;;;7.75;100.00;98851.47;4920592;29;20039;-74
2023/12/21 07:06:45;;;;;;;1.00;0.70;;;;;;;7.75;100.00;98835.47;4891867;29;20044;-74
2023/12/21 07:09:11;;;;;;;1.35;1.08;;;;;;;7.80;100.00;98811.41;4916855;29;20052;-74
2023/12/21 07:11:36;;;;;;;1.30;0.80;;;;;;;7.80;100.00;98807.97;4903008;29;20027;-74
2023/12/21 07:14:02;;;;;;;1.77;1.20;;;;;;;7.78;100.00;98802.91;4923434;29;20031;-76
2023/12/21 07:16:28;;;;;;;1.67;0.90;;;;;;;7.79;100.00;98793.84;4902250;29;20438;-73
2023/12/21 07:18:54;;;;;;;1.23;0.70;;;;;;;7.77;100.00;98796.00;4905526;29;20521;-75
2023/12/21 07:21:19;;;;;;;2.50;1.02;;;;;;;7.79;100.00;98793.03;4902520;29;20383;-73
2023/12/21 07:23:46;;;;;;;1.90;0.63;;;;;;;7.79;100.00;98787.69;4919679;29;20524;-73
2023/12/21 07:26:13;;;;;;;1.85;1.10;;;;;;;7.78;100.00;98776.25;4881738;29;20050;-73
2023/12/21 07:28:40;;;;;;;2.35;0.60;;;;;;;7.84;100.00;98779.59;4920418;29;20040;-75
2023/12/21 07:31:06;;;;;;;1.52;1.00;;;;;;;7.82;100.00;98771.91;4920286;29;20100;-73
2023/12/21 07:33:31;;;;;;;1.20;0.90;;;;;;;7.82;100.00;98757.81;4893867;29;20047;-74
2023/12/21 07:35:57;;;;;;;0.90;0.60;;;;;;;7.83;100.00;98754.03;4906604;29;20406;-74
2023/12/21 07:38:23;;;;;;;1.60;0.82;;;;;;;7.81;100.00;98749.03;4925723;29;20071;-73
2023/12/21 07:40:48;;;;;;;3.22;0.70;;;;;;;7.84;100.00;98745.75;4926365;29;20046;-73
2023/12/21 07:43:14;;;;;;;1.17;0.80;;;;;;;7.84;100.00;98740.41;4900056;29;20549;-73
2023/12/21 07:45:40;;;;;;;1.63;0.70;;;;;;;7.87;100.00;98731.06;4893028;29;20050;-74
2023/12/21 07:48:07;;;;;;;1.00;0.68;;;;;;;7.87;100.00;98723.06;4919109;29;20045;-74
2023/12/21 07:50:32;;;;;;;1.20;0.60;;;;;;;7.86;100.00;98730.25;4903083;29;20517;-74
2023/12/21 07:52:58;;;;;;;1.05;0.60;;;;;;;7.86;100.00;98711.59;4888613;29;20510;-74
2023/12/21 07:55:24;;;;;;;0.77;0.60;;;;;;;7.84;100.00;98705.78;4904233;29;20123;-74
2023/12/21 07:57:49;;;;;;;1.20;0.55;;;;;;;7.85;100.00;98702.00;4920863;29;20585;-74
2023/12/21 08:00:15;;;;;;;3.20;0.60;;;;;;;7.81;100.00;98703.72;4891177;29;20103;-73
2023/12/21 08:02:44;;;;;;;1.42;1.02;;;;;;;7.82;100.00;98694.63;4920492;29;20122;-75
2023/12/21 08:05:11;;;;;;;1.83;0.88;;;;;;;7.81;100.00;98690.41;4901383;29;20237;-72
2023/12/21 08:07:38;;;;;;;0.70;0.35;;;;;;;7.80;100.00;98666.72;4913752;29;20035;-73
2023/12/21 08:10:06;;;;;;;0.73;0.70;;;;;;;7.84;100.00;98683.66;4902322;29;20035;-72
2023/12/21 08:12:33;;;;;;;1.85;0.70;;;;;;;7.84;100.00;98671.13;4904681;29;20830;-75
2023/12/21 08:14:59;;;;;;;0.52;0.35;;;;;;;7.85;100.00;98675.38;4921551;29;20094;-73
2023/12/21 08:17:25;;;;;;;0.70;0.60;;;;;;;7.88;100.00;98664.13;4888141;29;20039;-76
2023/12/21 08:19:51;;;;;;;1.38;0.50;;;;;;;7.93;100.00;98661.34;4907165;29;20051;-74
2023/12/21 08:22:17;;;;;;;0.68;0.57;;;;;;;7.90;100.00;98655.81;4915598;29;20134;-74
2023/12/21 08:24:42;;;;;;;1.23;0.45;;;;;;;7.90;100.00;98640.59;4904298;29;20072;-74
2023/12/21 08:27:08;;;;;;;1.52;0.93;;;;;;;7.87;100.00;98645.78;4918550;29;20047;-76
2023/12/21 08:29:33;;;;;;;0.60;0.40;;;;;;;7.91;100.00;98631.53;4889208;29;20059;-73
2023/12/21 08:32:00;;;;;;;1.13;0.80;;;;;;;7.96;100.00;98627.16;4903827;29;20051;-74
2023/12/21 08:34:26;;;;;;;1.52;0.60;;;;;;;7.96;100.00;98627.94;4906510;29;20077;-75
2023/12/21 08:36:52;;;;;;;2.97;0.50;;;;;;;7.94;100.00;98625.59;4926163;28;20460;-74
2023/12/21 08:39:18;;;;;;;0.73;0.63;;;;;;;7.94;100.00;98606.16;4922650;29;20524;-75
2023/12/21 08:41:43;;;;;;;1.10;0.60;;;;;;;7.94;100.00;98622.16;4895534;29;20040;-73
2023/12/21 08:44:10;;;;;;;0.73;0.73;;;;;;;7.93;100.00;98608.03;4924171;29;20047;-74
2023/12/21 08:46:41;;;;;;;0.73;0.47;;;;;;;7.98;100.00;98604.44;4925669;29;20036;-74
2023/12/21 08:49:06;;;;;;;0.80;0.73;;;;;;;8.00;100.00;98607.59;4926250;29;20537;-73
2023/12/21 08:51:32;;;;;;;0.80;0.30;;;;;;;8.00;100.00;98602.28;4920973;29;20032;-73
2023/12/21 08:53:58;;;;;;;;;;;;;;;7.98;100.00;98585.00;4909489;29;20044;-73
2023/12/21 08:56:24;;;;;;;0.80;0.40;;;;;;;7.99;100.00;98579.34;4922580;29;19921;-74
2023/12/21 08:58:51;;;;;;;0.50;0.40;;;;;;;7.97;100.00;98562.88;4921491;29;20171;-73
2023/12/21 09:01:16;;;;;;;3.50;0.88;;;;;;;7.94;100.00;98556.31;4893089;29;20051;-72
2023/12/21 09:03:43;;;;;;;1.15;0.60;;;;;;;7.91;100.00;98556.91;4924158;29;20032;-73
2023/12/21 09:06:09;;;;;;;1.73;0.88;;;;;;;7.94;100.00;98558.19;4892456;29;20051;-72
2023/12/21 09:08:34;;;;;;;1.40;0.60;;;;;;;7.93;100.00;98557.41;4901965;29;20043;-72
2023/12/21 09:11:00;;;;;;;0.90;0.40;;;;;;;7.93;100.00;98545.94;4921646;29;20501;-72
2023/12/21 09:13:26;;;;;;;2.17;0.77;;;;;;;7.95;100.00;98530.44;4925631;29;20068;-73
2023/12/21 09:15:57;;;;;;;0.95;0.70;;;;;;;7.96;100.00;98521.34;4922112;23;20043;31
2023/12/21 09:18:24;;;;;;;1.10;0.40;;;;;;;7.96;100.00;98515.22;4913680;29;20055;-72
2023/12/21 09:20:50;;;;;;;0.73;0.40;;;;;;;7.96;100.00;98509.88;4907165;29;20039;-73
2023/12/21 09:23:15;;;;;;;1.77;0.80;;;;;;;7.94;100.00;98504.88;4903061;29;20077;-73
2023/12/21 09:25:41;;;;;;;1.70;0.60;;;;;;;7.94;100.00;98492.34;4904681;29;20052;-72
2023/12/21 09:28:07;;;;;;;1.67;0.80;;;;;;;7.91;100.00;98492.94;4906178;29;20099;-73
2023/12/21 09:30:32;;;;;;;2.67;0.50;;;;;;;7.90;100.00;98493.25;4888319;29;20127;-74
2023/12/21 09:32:59;;;;;;;0.50;0.35;;;;;;;7.90;100.00;98491.38;4906101;29;20044;-72
2023/12/21 09:35:25;;;;;;;0.73;0.40;;;;;;;7.94;100.00;98486.22;4905519;29;20140;-74
2023/12/21 09:37:51;;;;;;;1.88;0.50;;;;;;;7.95;100.00;98469.13;4925774;29;20127;-75
2023/12/21 09:40:16;;;;;;;1.00;0.80;;;;;;;7.99;100.00;98474.63;4905188;29;20088;-73
2023/12/21 09:42:44;;;;;;;1.50;0.40;;;;;;;8.02;100.00;98452.69;4906786;29;20126;-72
2023/12/21 09:45:11;;;;;;;3.03;0.82;;;;;;;8.02;100.00;98450.03;4920495;29;20095;-73
2023/12/21 09:47:39;;;;;;;1.23;0.43;;;;;;;8.05;100.00;98436.84;4909114;29;20088;-73
2023/12/21 09:50:07;;;;;;;1.98;0.40;;;;;;;8.03;100.00;98422.28;4909750;29;20044;-74
2023/12/21 09:52:34;;;;;;;0.68;0.30;;;;;;;8.04;100.00;98410.50;4909922;29;20040;-74
2023/12/21 09:55:01;;;;;;;3.30;0.60;;;;;;;8.03;100.00;98403.63;4909376;29;20047;-74
2023/12/21 09:57:27;;;;;;;2.15;0.65;;;;;;;8.01;100.00;98393.28;4907997;29;20044;-73
2023/12/21 09:59:55;;;;;;;1.85;0.40;;;;;;;8.00;100.00;98382.94;4923476;29;20054;-74
2023/12/21 10:02:26;;;;;;;1.75;0.75;;;;;;;8.01;100.00;98377.28;4903722;29;20047;-73
2023/12/21 10:04:52;;;;;;;1.17;0.40;;;;;;;8.02;100.00;98378.06;4905786;29;20140;-73
2023/12/21 10:07:17;;;;;;;1.52;0.80;;;;;;;8.04;100.00;98359.88;4890212;29;20134;-72
2023/12/21 10:09:43;;;;;;;2.38;0.50;;;;;;;8.05;100.00;98364.09;4904758;29;20067;-73
2023/12/21 10:12:09;;;;;;;1.30;0.77;;;;;;;8.06;100.00;98355.81;4907995;29;20028;-72
2023/12/21 10:14:34;;;;;;;1.13;0.40;;;;;;;8.07;100.00;98345.94;4907018;29;20071;-72
2023/12/21 10:17:01;;;;;;;1.30;0.40;;;;;;;8.09;100.00;98333.06;4908478;29;20047;-72
2023/12/21 10:19:27;;;;;;;1.52;0.50;;;;;;;8.11;100.00;98344.97;4922935;29;20048;-75
2023/12/21 10:21:53;;;;;;;0.70;0.40;;;;;;;8.13;100.00;98331.38;4907400;29;20051;-72
2023/12/21 10:24:19;;;;;;;1.48;0.70;;;;;;;8.16;100.00;98333.41;4906285;29;20040;-75
2023/12/21 10:26:47;;;;;;;0.60;0.47;;;;;;;8.17;100.00;98324.28;4891706;29;20040;-74
2023/12/21 10:29:14;;;;;;;2.67;0.80;;;;;;;8.19;100.00;98322.88;4934716;28;20044;-74
2023/12/21 10:31:45;;;;;;;1.80;0.50;;;;;;;8.21;100.00;98320.72;4915789;29;20517;-73
2023/12/21 10:34:11;;;;;;;0.90;0.57;;;;;;;8.22;100.00;98310.81;4905221;29;20123;-73
2023/12/21 10:36:38;;;;;;;0.65;0.40;;;;;;;8.24;100.00;98313.16;4908773;29;20508;-75
2023/12/21 10:39:04;;;;;;;0.90;0.40;;;;;;;8.24;100.00;98292.63;4891678;29;20107;-73
2023/12/21 10:41:30;;;;;;;1.92;1.27;;;;;;;8.27;100.00;98277.91;4908977;29;20036;-72
2023/12/21 10:43:56;;;;;;;1.20;0.45;;;;;;;8.28;100.00;98256.25;4908202;29;20107;-73
2023/12/21 10:46:22;;;;;;;4.38;0.68;;;;;;;8.30;100.00;98262.03;4905192;29;20048;-73
2023/12/21 10:48:48;;;;;;;3.13;0.60;;;;;;;8.31;100.00;98260.16;4909355;29;20387;-72
2023/12/21 10:51:16;;;;;;;0.70;0.60;;;;;;;8.33;100.00;98245.41;4906133;29;20040;-72
2023/12/21 10:53:42;;;;;;;0.80;0.70;;;;;;;8.33;100.00;98248.09;4919757;29;20519;-71
2023/12/21 10:56:09;;;;;;;1.08;0.40;;;;;;;8.31;100.00;98234.28;4903197;29;20517;-72
2023/12/21 10:58:35;;;;;;;1.10;0.43;;;;;;;8.31;100.00;98222.81;4906145;29;20036;-72
2023/12/21 11:01:02;;;;;;;0.60;0.20;;;;;;;8.32;100.00;98229.72;4890085;29;20054;-73
2023/12/21 11:03:28;;;;;;;1.10;0.63;;;;;;;8.30;100.00;98206.03;4901408;29;20095;-72
2023/12/21 11:05:55;;;;;;;;;;;;;;;8.32;100.00;98200.38;4925865;28;20072;-73
2023/12/21 11:08:21;;;;;;;1.35;0.68;;;;;;;8.32;100.00;98187.06;4903184;29;19919;-73
2023/12/21 11:10:48;;;;;;;2.78;0.40;;;;;;;8.33;100.00;98200.09;4920649;29;20036;-72
2023/12/21 11:13:14;;;;;;;1.15;0.80;;;;;;;8.35;100.00;98187.25;4902678;29;20043;-72
2023/12/21 11:15:40;;;;;;;1.67;0.50;;;;;;;8.35;100.00;98176.56;4902808;29;20035;-72
2023/12/21 11:18:11;;;;;;;3.92;0.80;;;;;;;8.35;100.00;98176.56;4933823;28;20036;-73
2023/12/21 11:20:45;;;;;;;2.13;0.50;;;;;;;8.33;100.00;98162.75;4903066;29;20075;-73
2023/12/21 11:23:11;;;;;;;1.63;0.68;;;;;;;8.34;100.00;98164.31;4903953;29;20044;-73
2023/12/21 11:25:37;;;;;;;1.55;0.60;;;;;;;8.39;100.00;98160.72;4906124;29;20439;-72
2023/12/21 11:28:04;;;;;;;0.80;0.60;;;;;;;8.42;100.00;98160.88;4903443;29;20044;-72
2023/12/21 11:30:32;;;;;;;2.55;0.57;;;;;;;8.44;100.00;98148.00;4899355;29;20096;-72